createdAt,value
2023-02-07T00:00:49.878Z,5.35
2023-02-07T00:03:33.160Z,7.57
2023-02-07T00:06:31.283Z,5.72
2023-02-07T00:09:19.339Z,7.57
2023-02-07T00:11:58.262Z,7.65
2023-02-07T00:14:27.227Z,8.93
2023-02-07T00:16:54.532Z,12.77
2023-02-07T00:19:26.977Z,7.82
2023-02-07T00:22:11.063Z,8.07
2023-02-07T00:25:40.718Z,6.95
2023-02-07T00:30:26.646Z,7.32
2023-02-07T00:32:56.836Z,7.82
2023-02-07T00:35:28.533Z,7.30
2023-02-07T00:38:36.447Z,4.05
2023-02-07T00:41:26.624Z,9.25
2023-02-07T00:44:08.912Z,10.32
2023-02-07T00:47:07.762Z,7.65
2023-02-07T00:49:55.238Z,6.13
2023-02-07T00:55:09.530Z,8.30
2023-02-07T00:58:03.742Z,9.50
2023-02-07T01:00:38.917Z,9.95
2023-02-07T01:03:18.165Z,7.40
2023-02-07T01:05:51.300Z,11.95
2023-02-07T01:08:31.702Z,10.98
2023-02-07T01:11:26.481Z,6.75
2023-02-07T01:14:00.895Z,6.95
2023-02-07T01:16:45.090Z,10.55
2023-02-07T01:22:06.725Z,5.80
2023-02-07T01:24:36.570Z,6.85
2023-02-07T01:27:12.213Z,9.63
2023-02-07T01:29:44.907Z,4.47
2023-02-07T01:32:13.411Z,6.85
2023-02-07T01:34:57.885Z,6.65
2023-02-07T01:37:32.780Z,5.60
2023-02-07T01:40:00.810Z,8.85
2023-02-07T01:42:40.544Z,4.90
2023-02-07T01:45:55.629Z,7.20
2023-02-07T01:48:44.383Z,5.85
2023-02-07T01:51:26.446Z,7.13
2023-02-07T01:54:22.140Z,9.35
2023-02-07T02:06:25.811Z,4.85
2023-02-07T02:08:59.517Z,5.32
2023-02-07T02:11:47.587Z,5.68
2023-02-07T02:14:45.633Z,6.88
2023-02-07T02:17:46.073Z,6.32
2023-02-07T02:21:01.542Z,6.80
2023-02-07T02:24:14.946Z,8.18
2023-02-07T02:27:09.830Z,8.02
2023-02-07T02:33:18.246Z,7.70
2023-02-07T02:35:53.976Z,8.25
2023-02-07T02:38:38.937Z,6.40
2023-02-07T02:41:12.810Z,10.48
2023-02-07T02:44:06.791Z,4.60
2023-02-07T02:46:37.333Z,7.85
2023-02-07T02:49:06.588Z,4.25
2023-02-07T02:51:33.391Z,5.10
2023-02-07T02:54:00.591Z,4.00
2023-02-07T02:56:44.382Z,5.00
2023-02-07T02:59:29.720Z,3.55
2023-02-07T03:04:37.127Z,4.60
2023-02-07T03:07:03.630Z,4.95
2023-02-07T03:09:59.212Z,3.47
2023-02-07T03:12:44.174Z,7.15
2023-02-07T03:15:31.380Z,7.20
2023-02-07T03:18:06.282Z,7.88
2023-02-07T03:20:55.825Z,5.00
2023-02-07T03:23:23.259Z,9.32
2023-02-07T03:25:52.278Z,5.72
2023-02-07T03:28:22.058Z,8.95
2023-02-07T03:30:51.905Z,6.75
2023-02-07T03:33:20.728Z,7.97
2023-02-07T03:36:08.320Z,7.85
2023-02-07T03:38:35.982Z,8.93
2023-02-07T03:41:12.381Z,10.75
2023-02-07T03:43:40.785Z,10.20
2023-02-07T03:46:09.689Z,12.30
2023-02-07T03:48:36.512Z,8.20
2023-02-07T03:51:03.440Z,9.80
2023-02-07T03:53:30.259Z,11.90
2023-02-07T03:55:56.839Z,9.05
2023-02-07T03:58:23.393Z,14.40
2023-02-07T04:00:50.996Z,16.88
2023-02-07T04:03:17.676Z,13.43
2023-02-07T04:05:47.319Z,9.95
2023-02-07T04:08:17.183Z,13.82
2023-02-07T04:10:44.014Z,9.93
2023-02-07T04:13:10.772Z,16.98
2023-02-07T04:15:41.166Z,17.73
2023-02-07T04:18:07.928Z,14.75
2023-02-07T04:20:36.839Z,18.60
2023-02-07T04:23:03.476Z,20.90
2023-02-07T04:25:43.644Z,14.27
2023-02-07T04:28:12.464Z,11.57
2023-02-07T04:30:42.170Z,17.85
2023-02-07T04:33:08.923Z,10.15
2023-02-07T04:35:35.611Z,14.23
2023-02-07T04:38:04.035Z,15.20
2023-02-07T04:40:30.815Z,15.85
2023-02-07T04:43:00.249Z,24.65
2023-02-07T04:45:27.120Z,19.23
2023-02-07T04:47:56.754Z,20.92
2023-02-07T04:50:23.515Z,16.52
2023-02-07T04:52:52.433Z,17.30
2023-02-07T04:55:25.344Z,17.63
2023-02-07T04:57:56.227Z,15.13
2023-02-07T05:00:29.126Z,25.23
2023-02-07T05:03:00.616Z,27.67
2023-02-07T05:05:27.632Z,26.88
2023-02-07T05:07:56.331Z,18.05
2023-02-07T05:10:23.038Z,19.33
2023-02-07T05:12:51.427Z,20.75
2023-02-07T05:15:20.295Z,17.20
2023-02-07T05:17:50.004Z,19.95
2023-02-07T05:20:28.721Z,19.88
2023-02-07T05:23:04.573Z,15.40
2023-02-07T05:25:38.684Z,22.38
2023-02-07T05:28:24.610Z,21.95
2023-02-07T05:31:15.899Z,20.42
2023-02-07T05:33:56.345Z,16.33
2023-02-07T05:36:26.970Z,17.70
2023-02-07T05:41:48.047Z,17.13
2023-02-07T05:47:14.902Z,20.08
2023-02-07T05:49:51.911Z,16.95
2023-02-07T05:52:23.568Z,16.77
2023-02-07T05:54:54.609Z,21.65
2023-02-07T05:57:28.603Z,27.27
2023-02-07T06:00:03.035Z,15.60
2023-02-07T06:02:40.729Z,19.50
2023-02-07T06:05:25.893Z,18.88
2023-02-07T06:08:01.446Z,23.90
2023-02-07T06:10:32.353Z,17.55
2023-02-07T06:13:02.102Z,22.15
2023-02-07T06:15:32.091Z,20.92
2023-02-07T06:23:07.773Z,26.08
2023-02-07T06:28:58.955Z,22.05
2023-02-07T06:32:17.501Z,21.60
2023-02-07T06:37:57.332Z,20.65
2023-02-07T06:43:14.669Z,20.30
2023-02-07T06:45:41.629Z,20.80
2023-02-07T06:48:09.969Z,22.60
2023-02-07T06:50:36.970Z,19.80
2023-02-07T06:53:03.967Z,17.95
2023-02-07T06:55:37.944Z,24.52
2023-02-07T06:58:06.397Z,17.00
2023-02-07T07:00:33.046Z,22.75
2023-02-07T07:03:00.465Z,21.55
2023-02-07T07:05:28.379Z,26.58
2023-02-07T07:07:55.358Z,19.92
2023-02-07T07:10:22.185Z,16.60
2023-02-07T07:12:48.975Z,20.92
2023-02-07T07:15:15.731Z,18.90
2023-02-07T07:17:42.704Z,22.77
2023-02-07T07:20:10.107Z,24.33
2023-02-07T07:22:36.709Z,22.40
2023-02-07T07:25:04.471Z,27.35
2023-02-07T07:27:31.147Z,23.75
2023-02-07T07:29:57.828Z,28.08
2023-02-07T07:32:33.665Z,20.30
2023-02-07T07:35:01.330Z,23.98
2023-02-07T07:37:27.881Z,23.42
2023-02-07T07:39:54.529Z,20.25
2023-02-07T07:42:21.141Z,29.83
2023-02-07T07:44:47.707Z,26.48
2023-02-07T07:47:14.301Z,23.52
2023-02-07T07:49:41.276Z,25.17
2023-02-07T07:52:08.001Z,26.38
2023-02-07T07:54:34.748Z,21.73
2023-02-07T07:57:01.340Z,25.27
2023-02-07T07:59:27.976Z,28.38
2023-02-07T08:01:54.556Z,24.67
2023-02-07T08:04:21.166Z,25.45
2023-02-07T08:06:48.273Z,31.52
2023-02-07T08:09:14.941Z,27.15
2023-02-07T08:11:41.475Z,27.58
2023-02-07T08:14:08.146Z,24.83
2023-02-07T08:16:34.971Z,25.83
2023-02-07T08:19:01.642Z,27.30
2023-02-07T08:21:28.230Z,23.25
2023-02-07T08:23:54.781Z,21.83
2023-02-07T08:26:21.562Z,32.42
2023-02-07T08:28:49.563Z,23.73
2023-02-07T08:31:16.339Z,26.42
2023-02-07T08:33:42.994Z,26.10
2023-02-07T08:36:11.186Z,30.52
2023-02-07T08:38:38.238Z,29.13
2023-02-07T08:41:05.727Z,29.92
2023-02-07T08:43:32.526Z,25.67
2023-02-07T08:46:00.651Z,25.77
2023-02-07T08:48:27.513Z,29.25
2023-02-07T08:50:54.601Z,29.17
2023-02-07T08:53:21.373Z,29.25
2023-02-07T08:55:48.447Z,33.42
2023-02-07T08:58:14.980Z,27.90
2023-02-07T09:00:41.894Z,32.20
2023-02-07T09:03:08.760Z,30.55
2023-02-07T09:05:35.489Z,32.17
2023-02-07T09:08:03.036Z,29.52
2023-02-07T09:10:29.981Z,31.17
2023-02-07T09:12:56.629Z,32.40
2023-02-07T09:15:23.307Z,32.95
2023-02-07T09:17:49.927Z,29.70
2023-02-07T09:20:16.677Z,39.70
2023-02-07T09:23:01.822Z,31.73
2023-02-07T09:25:28.941Z,31.05
2023-02-07T09:27:55.983Z,33.13
2023-02-07T09:30:22.808Z,26.48
2023-02-07T09:32:49.381Z,27.10
2023-02-07T09:35:16.033Z,31.45
2023-02-07T09:37:49.299Z,31.17
2023-02-07T09:40:19.575Z,29.63
2023-02-07T09:43:17.808Z,25.23
2023-02-07T09:45:49.869Z,23.40
2023-02-07T09:48:34.718Z,29.52
2023-02-07T09:51:05.624Z,19.17
2023-02-07T09:53:41.033Z,25.38
2023-02-07T09:56:09.750Z,25.02
2023-02-07T09:58:55.854Z,24.33
2023-02-07T10:01:26.827Z,26.40
2023-02-07T10:04:23.300Z,17.27
2023-02-07T10:06:53.434Z,26.00
2023-02-07T10:09:33.095Z,20.30
2023-02-07T10:12:38.626Z,21.50
2023-02-07T10:15:31.994Z,25.27
2023-02-07T10:18:24.254Z,30.27
2023-02-07T10:21:00.784Z,29.20
2023-02-07T10:23:39.541Z,27.60
2023-02-07T10:26:18.473Z,27.85
2023-02-07T10:29:26.741Z,26.67
2023-02-07T10:31:55.904Z,25.50
2023-02-07T10:34:26.052Z,20.35
2023-02-07T10:36:56.223Z,23.05
2023-02-07T10:39:22.780Z,29.05
2023-02-07T10:41:49.530Z,22.35
2023-02-07T10:44:20.389Z,23.27
2023-02-07T10:46:55.130Z,23.63
2023-02-07T10:49:25.977Z,24.00
2023-02-07T10:51:56.928Z,22.92
2023-02-07T10:54:24.947Z,22.17
2023-02-07T10:57:02.261Z,20.08
2023-02-07T10:59:48.028Z,19.45
2023-02-07T11:04:50.237Z,18.27
2023-02-07T11:07:16.804Z,15.38
2023-02-07T11:09:43.532Z,23.27
2023-02-07T11:12:16.509Z,18.65
2023-02-07T11:15:01.355Z,13.52
2023-02-07T11:17:28.885Z,17.02
2023-02-07T11:19:56.008Z,18.45
2023-02-07T11:22:24.935Z,15.82
2023-02-07T11:24:59.567Z,14.68
2023-02-07T11:27:26.407Z,14.27
2023-02-07T11:29:59.323Z,11.32
2023-02-07T11:32:28.240Z,14.95
2023-02-07T11:35:01.714Z,13.88
2023-02-07T11:37:29.827Z,14.43
2023-02-07T11:40:17.701Z,14.13
2023-02-07T11:42:44.828Z,16.70
2023-02-07T11:45:17.602Z,19.17
2023-02-07T11:47:48.927Z,12.75
2023-02-07T11:50:29.899Z,16.05
2023-02-07T11:53:00.147Z,12.57
2023-02-07T11:55:35.295Z,15.02
2023-02-07T11:58:17.951Z,14.95
2023-02-07T12:00:45.218Z,15.30
2023-02-07T12:03:27.675Z,14.30
2023-02-07T12:05:57.540Z,17.63
2023-02-07T12:08:28.122Z,19.58
2023-02-07T12:10:58.817Z,17.13
2023-02-07T12:13:46.496Z,15.10
2023-02-07T12:16:21.517Z,13.73
2023-02-07T12:21:38.666Z,15.00
2023-02-07T12:24:18.857Z,11.27
2023-02-07T12:26:54.080Z,11.60
2023-02-07T12:30:02.430Z,18.00
2023-02-07T12:32:44.747Z,14.70
2023-02-07T12:35:18.521Z,15.50
2023-02-07T12:37:54.430Z,11.63
2023-02-07T12:40:56.091Z,11.80
2023-02-07T12:43:33.491Z,13.15
2023-02-07T12:46:00.660Z,12.48
2023-02-07T12:48:39.394Z,11.23
2023-02-07T12:51:26.309Z,13.43
2023-02-07T12:53:58.866Z,11.45
2023-02-07T12:56:45.764Z,14.30
2023-02-07T12:59:47.299Z,12.13
2023-02-07T13:02:36.027Z,13.68
2023-02-07T13:05:17.664Z,11.90
2023-02-07T13:08:06.091Z,11.02
2023-02-07T13:11:08.538Z,10.75
2023-02-07T13:13:53.462Z,12.57
2023-02-07T13:16:31.573Z,19.05
2023-02-07T13:19:10.334Z,13.85
2023-02-07T13:21:49.376Z,15.48
2023-02-07T13:24:20.356Z,9.05
2023-02-07T13:26:54.768Z,11.00
2023-02-07T13:29:24.251Z,12.15
2023-02-07T13:31:55.457Z,14.18
2023-02-07T13:34:26.293Z,12.65
2023-02-07T13:36:53.865Z,15.70
2023-02-07T13:39:35.712Z,15.95
2023-02-07T13:42:26.974Z,15.27
2023-02-07T13:45:24.755Z,16.27
2023-02-07T13:48:16.801Z,9.23
2023-02-07T13:50:53.426Z,11.55
2023-02-07T13:53:38.249Z,12.82
2023-02-07T13:56:32.673Z,13.25
2023-02-07T13:59:18.982Z,13.50
2023-02-07T14:01:54.446Z,9.55
2023-02-07T14:04:22.815Z,13.63
2023-02-07T14:07:01.580Z,9.18
2023-02-07T14:09:32.691Z,12.00
2023-02-07T14:12:02.661Z,12.75
2023-02-07T14:14:33.091Z,11.02
2023-02-07T14:17:09.031Z,15.90
2023-02-07T14:19:41.431Z,14.98
2023-02-07T14:22:29.516Z,10.00
2023-02-07T14:24:58.832Z,11.07
2023-02-07T14:27:33.968Z,7.68
2023-02-07T14:30:00.591Z,10.18
2023-02-07T14:32:31.194Z,11.27
2023-02-07T14:35:16.543Z,14.88
2023-02-07T14:37:54.002Z,11.57
2023-02-07T14:40:22.793Z,13.73
2023-02-07T14:43:23.777Z,10.40
2023-02-07T14:45:50.416Z,8.63
2023-02-07T14:48:47.900Z,9.25
2023-02-07T14:51:18.351Z,10.13
2023-02-07T14:53:50.849Z,10.10
2023-02-07T14:56:33.948Z,9.57
2023-02-07T14:59:00.658Z,13.35
2023-02-07T15:01:27.216Z,9.90
2023-02-07T15:04:04.257Z,11.63
2023-02-07T15:06:40.862Z,9.40
2023-02-07T15:09:18.593Z,10.45
2023-02-07T15:11:47.750Z,9.07
2023-02-07T15:14:31.918Z,10.75
2023-02-07T15:17:00.419Z,9.13
2023-02-07T15:19:36.835Z,10.15
2023-02-07T15:22:11.794Z,14.70
2023-02-07T15:24:51.878Z,9.02
2023-02-07T15:27:21.403Z,15.68
2023-02-07T15:29:58.364Z,14.23
2023-02-07T15:32:31.006Z,7.78
2023-02-07T15:34:58.337Z,8.63
2023-02-07T15:37:26.208Z,9.57
2023-02-07T15:39:54.807Z,12.57
2023-02-07T15:42:24.132Z,10.15
2023-02-07T15:44:55.895Z,9.35
2023-02-07T15:47:28.512Z,9.00
2023-02-07T15:50:22.922Z,7.85
2023-02-07T15:52:53.004Z,9.63
2023-02-07T15:55:43.532Z,12.70
2023-02-07T15:58:23.222Z,10.73
2023-02-07T16:00:49.809Z,8.60
2023-02-07T16:03:23.466Z,10.63
2023-02-07T16:06:06.055Z,8.57
2023-02-07T16:08:40.612Z,10.73
2023-02-07T16:11:25.794Z,11.55
2023-02-07T16:14:15.748Z,8.55
2023-02-07T16:16:52.729Z,8.05
2023-02-07T16:19:32.329Z,10.13
2023-02-07T16:22:08.487Z,9.00
2023-02-07T16:24:38.063Z,8.77
2023-02-07T16:27:05.915Z,7.65
2023-02-07T16:29:33.675Z,6.40
2023-02-07T16:32:39.449Z,6.90
2023-02-07T16:35:24.729Z,5.00
2023-02-07T16:37:51.953Z,8.02
2023-02-07T16:40:20.150Z,6.45
2023-02-07T16:42:46.997Z,9.90
2023-02-07T16:45:17.924Z,7.63
2023-02-07T16:47:48.003Z,7.63
2023-02-07T16:50:20.878Z,6.47
2023-02-07T16:52:52.670Z,6.88
2023-02-07T16:55:20.850Z,7.40
2023-02-07T16:57:49.434Z,6.53
2023-02-07T17:00:30.271Z,8.60
2023-02-07T17:08:27.411Z,8.05
2023-02-07T17:11:39.090Z,7.78
2023-02-07T17:14:24.430Z,7.85
2023-02-07T17:19:46.524Z,4.63
2023-02-07T17:22:24.137Z,5.50
2023-02-07T17:24:52.598Z,5.47
2023-02-07T17:27:29.183Z,6.15
2023-02-07T17:30:22.805Z,6.00
2023-02-07T17:33:10.029Z,5.38
2023-02-07T17:36:36.618Z,5.85
2023-02-07T17:39:03.848Z,4.57
2023-02-07T17:41:41.372Z,5.22
2023-02-07T17:47:11.728Z,8.05
2023-02-07T17:49:50.707Z,6.60
2023-02-07T17:52:27.229Z,5.18
2023-02-07T17:55:16.546Z,5.07
2023-02-07T18:19:05.215Z,8.70
2023-02-07T18:24:59.662Z,9.77
2023-02-07T18:28:09.658Z,7.95
2023-02-07T18:38:13.529Z,5.95
2023-02-07T18:38:23.626Z,7.80
2023-02-07T18:41:42.665Z,8.73
2023-02-07T18:44:15.722Z,6.20
2023-02-07T18:46:52.890Z,6.60
2023-02-07T18:49:37.752Z,6.75
2023-02-07T18:52:17.438Z,5.28
2023-02-07T18:54:46.389Z,12.00
2023-02-07T18:57:13.753Z,8.88
2023-02-07T18:59:42.787Z,9.93
2023-02-07T19:02:12.546Z,13.82
2023-02-07T19:04:52.630Z,6.80
2023-02-07T19:07:19.156Z,10.02
2023-02-07T19:09:45.832Z,9.18
2023-02-07T19:12:15.547Z,8.40
2023-02-07T19:14:42.238Z,9.43
2023-02-07T19:17:08.953Z,10.35
2023-02-07T19:19:35.680Z,9.15
2023-02-07T19:22:02.834Z,12.50
2023-02-07T19:24:29.496Z,14.73
2023-02-07T19:26:58.282Z,8.40
2023-02-07T19:29:29.374Z,12.13
2023-02-07T19:32:01.328Z,10.20
2023-02-07T19:34:28.425Z,10.05
2023-02-07T19:36:55.173Z,12.63
2023-02-07T19:39:22.552Z,10.20
2023-02-07T19:41:49.568Z,12.30
2023-02-07T19:44:17.245Z,12.48
2023-02-07T19:46:44.627Z,9.88
2023-02-07T19:49:12.883Z,10.65
2023-02-07T19:51:40.049Z,12.52
2023-02-07T19:54:07.097Z,7.75
2023-02-07T19:56:34.668Z,12.68
2023-02-07T19:59:04.397Z,8.65
2023-02-07T20:01:34.367Z,10.60
2023-02-07T20:04:01.214Z,19.35
2023-02-07T20:06:31.475Z,11.88
2023-02-07T20:09:00.016Z,10.32
2023-02-07T20:11:26.660Z,10.93
2023-02-07T20:13:55.554Z,9.02
2023-02-07T20:16:24.431Z,10.88
2023-02-07T20:18:53.012Z,10.50
2023-02-07T20:21:26.344Z,12.68
2023-02-07T20:23:55.156Z,11.13
2023-02-07T20:26:25.489Z,7.88
2023-02-07T20:28:52.613Z,11.02
2023-02-07T20:31:39.657Z,10.82
2023-02-07T20:34:06.982Z,11.02
2023-02-07T20:36:40.881Z,10.63
2023-02-07T20:39:13.797Z,12.35
2023-02-07T20:41:46.112Z,12.30
2023-02-07T20:44:21.565Z,13.15
2023-02-07T20:46:49.342Z,14.43
2023-02-07T20:49:19.813Z,13.30
2023-02-07T20:51:50.370Z,14.35
2023-02-07T20:54:18.681Z,13.57
2023-02-07T20:56:45.673Z,11.95
2023-02-07T20:59:18.747Z,14.88
2023-02-07T21:01:45.789Z,12.48
2023-02-07T21:04:12.867Z,14.00
2023-02-07T21:06:39.865Z,13.50
2023-02-07T21:09:07.433Z,8.25
2023-02-07T21:11:41.741Z,11.93
2023-02-07T21:14:13.180Z,25.87
2023-02-07T21:16:39.904Z,11.18
2023-02-07T21:19:06.602Z,10.18
2023-02-07T21:21:33.197Z,15.63
2023-02-07T21:23:59.971Z,13.10
2023-02-07T21:26:27.077Z,15.15
2023-02-07T21:29:01.860Z,10.95
2023-02-07T21:31:30.401Z,11.38
2023-02-07T21:33:57.335Z,12.02
2023-02-07T21:36:29.270Z,11.55
2023-02-07T21:38:57.210Z,12.40
2023-02-07T21:41:26.832Z,14.88
2023-02-07T21:43:58.188Z,11.38
2023-02-07T21:46:27.747Z,10.30
2023-02-07T21:49:01.863Z,14.95
2023-02-07T21:51:30.705Z,6.70
2023-02-07T21:53:58.132Z,10.45
2023-02-07T21:56:30.413Z,9.88
2023-02-07T21:59:00.348Z,12.05
2023-02-07T22:01:28.879Z,11.48
2023-02-07T22:03:57.875Z,10.55
2023-02-07T22:06:24.608Z,13.98
2023-02-07T22:08:59.448Z,10.48
2023-02-07T22:11:29.712Z,12.30
2023-02-07T22:13:56.339Z,12.88
2023-02-07T22:16:25.080Z,12.68
2023-02-07T22:18:53.493Z,16.10
2023-02-07T22:21:32.366Z,15.43
2023-02-07T22:23:59.862Z,16.85
2023-02-07T22:26:28.512Z,13.50
2023-02-07T22:28:56.145Z,14.25
2023-02-07T22:31:29.655Z,16.38
2023-02-07T22:34:01.799Z,14.20
2023-02-07T22:36:31.236Z,15.25
2023-02-07T22:38:59.936Z,16.40
2023-02-07T22:41:27.300Z,12.98
2023-02-07T22:43:54.189Z,13.10
2023-02-07T22:46:24.228Z,16.70
2023-02-07T22:48:51.750Z,15.98
2023-02-07T22:51:27.667Z,16.88
2023-02-07T22:53:59.932Z,14.27
2023-02-07T22:56:27.846Z,11.68
2023-02-07T22:58:55.288Z,11.77
2023-02-07T23:01:25.106Z,14.32
2023-02-07T23:03:52.356Z,12.18
2023-02-07T23:06:19.959Z,16.30
2023-02-07T23:08:46.900Z,10.50
2023-02-07T23:11:15.936Z,14.40
2023-02-07T23:13:43.326Z,13.38
2023-02-07T23:16:14.817Z,11.07
2023-02-07T23:18:41.485Z,14.95
2023-02-07T23:21:10.276Z,11.77
2023-02-07T23:23:37.580Z,15.63
2023-02-07T23:26:07.822Z,14.50
2023-02-07T23:28:34.696Z,13.30
2023-02-07T23:31:01.342Z,14.88
2023-02-07T23:33:27.980Z,12.82
2023-02-07T23:35:54.507Z,11.35
2023-02-07T23:38:21.044Z,13.18
2023-02-07T23:40:47.635Z,14.82
2023-02-07T23:43:14.349Z,12.45
2023-02-07T23:45:40.873Z,13.55
2023-02-07T23:48:07.481Z,10.63
2023-02-07T23:50:34.703Z,11.15
2023-02-07T23:53:01.783Z,11.57
2023-02-07T23:55:28.340Z,11.98
2023-02-07T23:57:55.274Z,12.95
